Time;durP1;ratioP1;P1;durP2;ratioP2;P2;SDS_P1;SDS_P2;PMS_P1;PMS_P2;Temp;Humidity;BMP_temperature;BMP_pressure;BME280_temperature;BME280_humidity;BME280_pressure;Samples;Min_cycle;Max_cycle;Signal;HPM_P1;HPM_P2
2022/03/07 00:01:26;;;;;;;3.17;2.70;;;;;;;0.95;92.15;99909.13;5143614;27;20230;-78
2022/03/07 00:03:58;;;;;;;3.50;2.77;;;;;;;0.95;92.09;99909.13;5153879;27;20200;-78
2022/03/07 00:06:27;;;;;;;4.03;2.73;;;;;;;0.75;91.61;99902.41;5149461;27;20186;-77
2022/03/07 00:08:59;;;;;;;4.37;3.10;;;;;;;0.88;92.28;99904.91;5147515;27;20189;-77
2022/03/07 00:11:29;;;;;;;4.07;3.13;;;;;;;0.70;92.65;99900.75;5150874;27;20198;-78
2022/03/07 00:14:01;;;;;;;3.17;2.87;;;;;;;0.57;94.08;99894.81;5100930;27;20197;-77
2022/03/07 00:16:33;;;;;;;5.90;3.57;;;;;;;0.72;93.54;99899.84;5101869;28;20202;-77
2022/03/07 00:19:02;;;;;;;4.53;3.10;;;;;;;0.69;94.30;99899.91;5108219;28;20191;-78
2022/03/07 00:21:32;;;;;;;4.30;3.20;;;;;;;0.81;93.88;99896.28;5110346;28;20215;-78
2022/03/07 00:24:03;;;;;;;4.00;3.03;;;;;;;0.85;94.55;99897.94;5104471;28;20222;-77
2022/03/07 00:26:32;;;;;;;3.40;3.10;;;;;;;0.75;93.68;99907.63;5109174;28;20198;-77
2022/03/07 00:29:01;;;;;;;3.80;2.70;;;;;;;0.54;95.06;99898.31;5106485;28;20691;-77
2022/03/07 00:31:29;;;;;;;4.30;3.00;;;;;;;0.71;95.23;99900.75;5066849;28;20208;-77
2022/03/07 00:33:59;;;;;;;4.00;3.03;;;;;;;0.74;95.29;99905.06;5066636;28;20188;-78
2022/03/07 00:36:27;;;;;;;3.67;3.00;;;;;;;0.70;95.81;99904.22;5092477;28;20199;-78
2022/03/07 00:38:57;;;;;;;4.50;3.50;;;;;;;0.78;94.55;99905.00;5092529;28;20188;-78
2022/03/07 00:41:25;;;;;;;3.87;2.90;;;;;;;0.74;93.58;99907.66;5050984;28;20225;-78
2022/03/07 00:43:54;;;;;;;3.43;3.03;;;;;;;0.47;94.36;99912.28;5044911;28;20216;-77
2022/03/07 00:46:22;;;;;;;3.57;3.27;;;;;;;0.59;93.87;99908.72;5050788;28;20197;-78
2022/03/07 00:48:51;;;;;;;3.63;3.00;;;;;;;0.69;93.51;99896.44;5058660;28;20260;-78
2022/03/07 00:51:20;;;;;;;4.17;3.40;;;;;;;0.63;92.40;99902.56;5087023;28;20196;-78
2022/03/07 00:53:51;;;;;;;4.77;3.17;;;;;;;0.57;91.01;99903.50;5086275;28;20279;-78
2022/03/07 00:56:23;;;;;;;4.40;3.47;;;;;;;0.45;90.65;99906.25;5091995;28;20207;-79
2022/03/07 00:58:52;;;;;;;3.87;3.20;;;;;;;0.54;91.81;99920.91;5095887;28;20278;-79
2022/03/07 01:01:20;;;;;;;3.97;3.13;;;;;;;0.52;92.53;99909.66;5106045;28;20223;-78
2022/03/07 01:03:50;;;;;;;7.43;3.47;;;;;;;0.58;91.57;99899.19;5110662;28;20191;-81
2022/03/07 01:06:18;;;;;;;3.83;3.20;;;;;;;0.60;92.21;99904.38;5111588;28;20240;-79
2022/03/07 01:08:46;;;;;;;3.57;3.07;;;;;;;0.57;92.20;99905.25;5111995;28;20278;-79
2022/03/07 01:11:18;;;;;;;5.07;3.37;;;;;;;0.59;92.24;99905.25;5103528;28;20244;-79
2022/03/07 01:13:48;;;;;;;5.20;3.50;;;;;;;0.53;91.61;99908.78;5107289;28;20210;-79
2022/03/07 01:16:17;;;;;;;4.23;3.43;;;;;;;0.62;91.75;99908.66;5112545;28;20240;-79
2022/03/07 01:18:46;;;;;;;3.63;3.17;;;;;;;0.45;92.55;99902.78;5109214;28;20201;-79
2022/03/07 01:21:14;;;;;;;3.70;3.30;;;;;;;0.53;92.13;99911.38;5105543;28;20225;-79
2022/03/07 01:23:43;;;;;;;3.83;3.23;;;;;;;0.65;92.64;99907.75;5105200;28;20198;-79
2022/03/07 01:26:12;;;;;;;5.03;3.60;;;;;;;0.65;91.09;99906.00;5107534;28;20195;-79
2022/03/07 01:28:40;;;;;;;5.33;3.27;;;;;;;0.64;91.60;99900.81;5105376;28;20191;-79
2022/03/07 01:31:10;;;;;;;4.90;3.43;;;;;;;0.46;90.70;99912.31;5106319;28;20203;-79
2022/03/07 01:33:44;;;;;;;4.07;3.37;;;;;;;0.49;92.15;99910.56;5108827;28;20209;-79
2022/03/07 01:36:12;;;;;;;5.10;3.67;;;;;;;0.57;92.51;99898.28;5111103;28;20203;-79
2022/03/07 01:38:41;;;;;;;4.53;3.27;;;;;;;0.57;92.55;99898.28;5067589;28;20184;-79
2022/03/07 01:41:09;;;;;;;3.87;3.20;;;;;;;0.68;91.87;99902.53;5062305;28;20196;-79
2022/03/07 01:43:38;;;;;;;4.77;3.63;;;;;;;0.58;91.81;99893.97;5065780;28;20224;-79
2022/03/07 01:46:09;;;;;;;5.20;3.23;;;;;;;0.38;92.14;99886.34;5065129;28;20200;-79
2022/03/07 01:48:40;;;;;;;6.10;3.57;;;;;;;0.46;93.95;99886.25;5064300;28;20245;-79
2022/03/07 01:51:10;;;;;;;3.87;3.10;;;;;;;0.72;92.12;99884.22;5062023;28;20362;-79
2022/03/07 01:53:41;;;;;;;5.73;3.63;;;;;;;0.70;92.19;99885.13;5062288;28;20215;-79
2022/03/07 01:56:10;;;;;;;5.23;3.33;;;;;;;0.68;91.96;99879.94;5077649;28;20274;-79
2022/03/07 01:58:39;;;;;;;6.13;3.90;;;;;;;0.64;92.56;99880.84;5110732;28;20218;-79
2022/03/07 02:01:09;;;;;;;4.83;3.33;;;;;;;0.62;92.78;99866.09;5061623;28;20217;-79
2022/03/07 02:03:39;;;;;;;5.50;3.90;;;;;;;0.68;91.65;99866.03;5055334;28;20308;-79
2022/03/07 02:06:07;;;;;;;4.33;3.43;;;;;;;0.70;92.09;99867.75;5051449;28;20212;-78
2022/03/07 02:08:36;;;;;;;4.27;3.67;;;;;;;0.50;92.10;99869.72;5051400;28;20189;-78
2022/03/07 02:11:05;;;;;;;4.53;3.57;;;;;;;0.43;91.87;99866.31;5046744;28;20185;-79
2022/03/07 02:13:35;;;;;;;3.87;2.90;;;;;;;0.62;92.44;99866.97;5052428;28;20301;-79
2022/03/07 02:16:04;;;;;;;5.80;3.10;;;;;;;0.57;92.45;99869.63;5050003;28;20256;-79
2022/03/07 02:18:37;;;;;;;5.23;3.50;;;;;;;0.55;91.68;99871.38;5052861;28;20204;-79
2022/03/07 02:21:10;;;;;;;6.63;3.37;;;;;;;0.60;92.32;99865.28;5058329;28;20687;-79
2022/03/07 02:23:43;;;;;;;5.13;3.60;;;;;;;0.66;93.43;99866.03;5055174;28;20224;-79
2022/03/07 02:26:15;;;;;;;5.00;3.40;;;;;;;0.60;93.04;99860.91;5053693;28;20195;-79
2022/03/07 02:28:48;;;;;;;4.70;3.60;;;;;;;0.74;92.96;99863.34;5054594;28;20295;-79
2022/03/07 02:31:19;;;;;;;4.57;3.37;;;;;;;0.70;92.83;99861.66;5049487;28;20263;-79
2022/03/07 02:33:49;;;;;;;4.47;3.23;;;;;;;0.99;92.24;99866.50;5057265;28;20291;-79
2022/03/07 02:36:22;;;;;;;4.33;3.17;;;;;;;0.96;92.69;99861.28;5049645;28;20215;-79
2022/03/07 02:38:54;;;;;;;4.13;3.33;;;;;;;1.05;92.49;99853.34;4959253;28;20263;-79
2022/03/07 02:41:23;;;;;;;5.30;3.10;;;;;;;1.09;92.17;99862.88;4983874;28;20253;-79
2022/03/07 02:43:51;;;;;;;3.70;3.27;;;;;;;0.92;91.62;99867.44;5025603;28;20248;-79
2022/03/07 02:46:20;;;;;;;5.20;3.40;;;;;;;0.84;92.33;99871.00;5030267;28;20222;-79
2022/03/07 02:48:50;;;;;;;3.97;3.17;;;;;;;0.96;93.45;99869.13;5030681;28;20301;-79
2022/03/07 02:51:20;;;;;;;4.90;3.40;;;;;;;0.89;93.70;99872.72;5034990;28;20224;-79
2022/03/07 02:53:50;;;;;;;4.83;3.60;;;;;;;0.84;94.78;99871.00;5032522;28;20198;-79
2022/03/07 02:56:20;;;;;;;4.13;3.23;;;;;;;0.84;94.98;99860.59;5029114;28;20201;-79
2022/03/07 02:58:48;;;;;;;4.23;3.10;;;;;;;1.02;95.16;99858.63;5032717;28;20244;-79
2022/03/07 03:01:19;;;;;;;4.37;3.10;;;;;;;0.93;95.25;99863.97;5029409;28;20190;-79
2022/03/07 03:03:49;;;;;;;3.90;3.03;;;;;;;0.97;95.42;99863.91;5033823;28;20243;-78
2022/03/07 03:06:17;;;;;;;4.07;3.23;;;;;;;0.82;95.38;99861.50;5032608;28;20225;-80
2022/03/07 03:08:45;;;;;;;3.70;3.13;;;;;;;0.93;95.47;99854.38;4995480;28;20198;-79
2022/03/07 03:11:15;;;;;;;4.73;3.30;;;;;;;1.02;95.16;99856.00;5035502;28;20197;-79
2022/03/07 03:13:48;;;;;;;3.80;2.90;;;;;;;0.96;95.53;99853.47;5043548;28;20209;-79
2022/03/07 03:16:17;;;;;;;4.37;2.90;;;;;;;1.14;95.14;99851.47;5034354;28;20210;-79
2022/03/07 03:18:45;;;;;;;4.23;3.20;;;;;;;0.99;95.49;99856.06;5030998;28;20201;-79
2022/03/07 03:21:15;;;;;;;3.87;3.07;;;;;;;1.05;96.00;99850.75;5031033;28;20197;-79
2022/03/07 03:23:43;;;;;;;3.60;3.00;;;;;;;0.96;96.34;99851.72;5032688;28;20218;-80
2022/03/07 03:26:11;;;;;;;4.67;3.20;;;;;;;0.95;96.31;99862.19;5039189;28;20690;-79
2022/03/07 03:28:40;;;;;;;4.20;3.27;;;;;;;0.97;97.45;99860.44;5037967;28;20254;-80
2022/03/07 03:31:11;;;;;;;4.23;3.20;;;;;;;1.12;97.56;99853.25;5071216;28;20198;-79
2022/03/07 03:33:42;;;;;;;4.17;2.90;;;;;;;0.88;98.48;99856.22;5070741;28;20201;-79
2022/03/07 03:36:10;;;;;;;5.30;3.10;;;;;;;0.98;98.22;99865.63;5029664;28;20207;-80
2022/03/07 03:38:39;;;;;;;5.20;3.10;;;;;;;1.09;97.75;99852.44;5044558;28;20248;-78
2022/03/07 03:41:07;;;;;;;4.77;2.90;;;;;;;0.98;98.11;99851.72;5049459;28;20664;-79
2022/03/07 03:43:36;;;;;;;4.80;3.10;;;;;;;1.09;97.41;99855.91;5044434;28;20231;-80
2022/03/07 03:46:04;;;;;;;4.87;3.00;;;;;;;0.83;97.73;99860.59;5046386;28;20208;-79
2022/03/07 03:48:34;;;;;;;4.27;3.00;;;;;;;0.91;98.51;99858.78;5044274;28;20208;-79
2022/03/07 03:51:03;;;;;;;3.33;2.80;;;;;;;1.03;98.39;99862.94;5053235;28;20201;-79
2022/03/07 03:53:32;;;;;;;3.77;2.57;;;;;;;1.03;99.60;99862.94;5046949;28;20193;-79
2022/03/07 03:56:04;;;;;;;5.10;2.63;;;;;;;1.15;100.00;99862.75;5046150;28;20320;-79
2022/03/07 03:58:33;;;;;;;3.53;3.10;;;;;;;1.07;100.00;99864.66;5053773;28;20766;-79
2022/03/07 04:01:06;;;;;;;3.33;2.63;;;;;;;1.03;100.00;99873.38;4983520;28;20201;-79
2022/03/07 04:03:36;;;;;;;3.03;2.73;;;;;;;1.07;100.00;99864.66;5044680;28;20347;-79
2022/03/07 04:06:08;;;;;;;3.43;2.87;;;;;;;1.19;100.00;99867.06;5047623;28;20203;-79
2022/03/07 04:08:37;;;;;;;4.73;2.90;;;;;;;1.08;100.00;99874.19;5046522;28;20208;-80
2022/03/07 04:11:07;;;;;;;3.13;2.80;;;;;;;1.14;100.00;99879.31;5048892;28;20295;-79
2022/03/07 04:13:35;;;;;;;3.07;2.60;;;;;;;0.99;100.00;99877.78;5049034;28;20193;-79
2022/03/07 04:16:05;;;;;;;3.50;2.80;;;;;;;1.04;100.00;99875.09;5048472;28;20197;-79
2022/03/07 04:18:36;;;;;;;4.13;2.97;;;;;;;0.90;100.00;99880.50;5055253;27;20259;-80
2022/03/07 04:21:07;;;;;;;4.43;2.80;;;;;;;0.91;100.00;99874.41;5130042;27;20194;-79
2022/03/07 04:23:35;;;;;;;3.83;2.80;;;;;;;1.01;100.00;99876.00;5129679;27;20210;-79
2022/03/07 04:26:04;;;;;;;4.77;3.30;;;;;;;1.09;100.00;99871.56;5131303;27;20191;-79
2022/03/07 04:28:34;;;;;;;3.80;2.90;;;;;;;1.01;100.00;99878.63;5134724;27;20194;-79
2022/03/07 04:31:03;;;;;;;4.43;2.97;;;;;;;1.19;100.00;99879.25;5092384;28;20204;-79
2022/03/07 04:33:31;;;;;;;3.30;2.73;;;;;;;1.17;100.00;99881.03;5009517;28;20203;-79
2022/03/07 04:36:01;;;;;;;5.00;2.80;;;;;;;1.06;100.00;99881.16;4930392;29;20201;-80
2022/03/07 04:38:29;;;;;;;5.50;2.87;;;;;;;0.92;100.00;99881.34;4926625;29;20237;-79
2022/03/07 04:40:58;;;;;;;4.40;2.70;;;;;;;1.09;100.00;99887.22;4899596;29;20197;-79
2022/03/07 04:43:32;;;;;;;4.90;3.00;;;;;;;0.97;100.00;99887.38;4915491;29;20292;-79
2022/03/07 04:46:01;;;;;;;4.70;3.00;;;;;;;1.00;100.00;99889.94;4910757;29;20204;-79
2022/03/07 04:48:29;;;;;;;3.50;2.87;;;;;;;1.09;100.00;99884.59;4912337;29;20201;-79
2022/03/07 04:50:57;;;;;;;4.77;3.00;;;;;;;1.01;100.00;99889.06;4926028;28;20207;-79
2022/03/07 04:53:27;;;;;;;4.43;3.07;;;;;;;1.14;100.00;99892.34;5007391;28;20200;-79
2022/03/07 04:55:58;;;;;;;4.47;2.73;;;;;;;1.09;100.00;99894.16;5069637;28;20189;-79
2022/03/07 04:58:27;;;;;;;3.73;3.10;;;;;;;1.09;100.00;99899.38;5067778;28;20208;-78
2022/03/07 05:00:56;;;;;;;3.43;3.10;;;;;;;1.03;100.00;99907.28;5065306;28;20208;-79
2022/03/07 05:03:25;;;;;;;3.60;3.13;;;;;;;1.12;100.00;99900.19;5067335;28;20367;-79
2022/03/07 05:05:53;;;;;;;3.53;2.90;;;;;;;0.94;100.00;99905.66;5062161;28;20203;-79
2022/03/07 05:08:22;;;;;;;4.47;3.00;;;;;;;1.05;100.00;99908.13;5093730;28;20630;-79
2022/03/07 05:10:52;;;;;;;5.60;3.37;;;;;;;0.94;100.00;99903.06;5107756;28;20203;-79
2022/03/07 05:13:21;;;;;;;5.57;3.63;;;;;;;1.07;100.00;99903.78;5058904;28;20209;-79
2022/03/07 05:15:49;;;;;;;4.13;3.10;;;;;;;1.15;100.00;99907.09;5114764;28;20274;-78
2022/03/07 05:18:21;;;;;;;3.57;3.13;;;;;;;1.03;100.00;99900.31;5111321;28;20210;-79
2022/03/07 05:20:52;;;;;;;4.07;3.10;;;;;;;1.04;100.00;99903.78;5107879;28;20199;-80
2022/03/07 05:23:28;;;;;;;4.70;3.30;;;;;;;0.93;100.00;99908.28;5108206;28;20309;-79
2022/03/07 05:25:58;;;;;;;4.23;2.90;;;;;;;0.93;100.00;99906.53;5112217;28;20190;-78
2022/03/07 05:28:26;;;;;;;6.07;3.17;;;;;;;0.89;100.00;99909.22;5114496;28;20191;-79
2022/03/07 05:30:55;;;;;;;3.43;2.90;;;;;;;0.79;100.00;99903.25;5109395;28;20707;-79
2022/03/07 05:33:24;;;;;;;3.30;3.00;;;;;;;0.92;100.00;99903.97;5101757;28;20277;-79
2022/03/07 05:35:52;;;;;;;4.23;3.20;;;;;;;0.96;100.00;99910.84;5107106;28;20183;-78
2022/03/07 05:38:21;;;;;;;6.50;3.53;;;;;;;0.89;100.00;99911.84;5106263;28;20190;-79
2022/03/07 05:40:49;;;;;;;4.17;3.40;;;;;;;1.05;100.00;99908.13;5110629;28;20198;-79
2022/03/07 05:43:19;;;;;;;5.23;3.30;;;;;;;1.06;100.00;99908.13;5085058;27;20237;-79
2022/03/07 05:45:47;;;;;;;4.77;3.73;;;;;;;1.20;100.00;99917.50;5131562;27;20218;-80
2022/03/07 05:48:17;;;;;;;7.43;4.43;;;;;;;1.05;100.00;99911.59;5122671;27;20202;-79
2022/03/07 05:50:47;;;;;;;15.97;7.90;;;;;;;1.09;100.00;99909.81;5126625;27;20645;-79
2022/03/07 05:53:19;;;;;;;31.83;15.37;;;;;;;1.15;100.00;99912.31;5129107;27;20190;-80
2022/03/07 05:55:47;;;;;;;30.40;14.87;;;;;;;1.14;100.00;99915.81;5125519;27;20205;-79
2022/03/07 05:58:18;;;;;;;30.47;16.10;;;;;;;1.15;100.00;99914.94;5129680;27;20633;-79
2022/03/07 06:00:47;;;;;;;21.73;12.53;;;;;;;1.02;100.00;99916.84;5131491;27;20191;-79
2022/03/07 06:03:15;;;;;;;21.60;11.97;;;;;;;0.98;100.00;99914.31;5125486;27;20312;-79
2022/03/07 06:05:44;;;;;;;7.53;5.10;;;;;;;1.02;100.00;99909.03;5123073;27;20230;-79
2022/03/07 06:08:17;;;;;;;11.77;6.53;;;;;;;1.14;100.00;99911.47;5052514;28;20197;-79
2022/03/07 06:10:46;;;;;;;19.50;11.30;;;;;;;1.24;100.00;99911.34;5046060;28;20197;-79
2022/03/07 06:13:14;;;;;;;31.23;16.13;;;;;;;1.06;100.00;99915.94;5051097;28;20204;-80
2022/03/07 06:15:44;;;;;;;30.40;17.30;;;;;;;1.13;100.00;99914.97;5046119;28;20201;-79
2022/03/07 06:18:13;;;;;;;20.10;11.77;;;;;;;1.17;100.00;99914.94;5046184;28;20395;-79
2022/03/07 06:20:41;;;;;;;28.57;14.50;;;;;;;1.30;100.00;99925.19;5046456;28;20196;-79
2022/03/07 06:23:10;;;;;;;20.57;11.40;;;;;;;1.24;100.00;99916.56;5046067;28;20201;-79
2022/03/07 06:25:39;;;;;;;16.27;8.80;;;;;;;1.31;100.00;99923.44;5055973;28;20291;-79
2022/03/07 06:28:07;;;;;;;13.13;7.80;;;;;;;1.34;100.00;99928.59;5125453;27;20505;-79
2022/03/07 06:30:36;;;;;;;22.37;10.23;;;;;;;1.52;100.00;99928.31;5125183;27;20191;-80
2022/03/07 06:33:06;;;;;;;13.30;7.67;;;;;;;1.38;100.00;99925.94;5133452;27;20190;-79
2022/03/07 06:35:36;;;;;;;7.93;5.20;;;;;;;1.35;100.00;99925.09;5127407;27;20203;-80
2022/03/07 06:38:04;;;;;;;14.67;8.37;;;;;;;1.24;100.00;99925.25;5089920;28;20184;-79
2022/03/07 06:40:33;;;;;;;17.63;7.67;;;;;;;1.34;100.00;99929.44;5084026;28;20226;-80
2022/03/07 06:43:02;;;;;;;21.90;11.07;;;;;;;1.33;100.00;99932.09;5080812;28;20223;-79
2022/03/07 06:45:31;;;;;;;27.60;14.67;;;;;;;1.38;100.00;99938.13;5030929;28;20228;-79
2022/03/07 06:48:02;;;;;;;22.57;13.17;;;;;;;1.35;100.00;99935.53;5027891;28;20198;-80
2022/03/07 06:50:33;;;;;;;12.53;6.70;;;;;;;1.40;100.00;99932.00;5028457;28;20190;-79
2022/03/07 06:53:03;;;;;;;24.07;11.97;;;;;;;1.47;100.00;99934.53;5034645;28;20198;-80
2022/03/07 06:55:31;;;;;;;10.63;5.00;;;;;;;1.46;100.00;99938.88;5035091;28;20194;-80
2022/03/07 06:58:00;;;;;;;14.57;8.20;;;;;;;1.39;100.00;99937.22;5026986;28;20216;-80
2022/03/07 07:00:29;;;;;;;14.33;7.60;;;;;;;1.44;100.00;99944.09;5032022;28;20646;-79
2022/03/07 07:02:58;;;;;;;12.20;8.27;;;;;;;1.43;100.00;99944.97;5033153;28;20196;-79
2022/03/07 07:05:28;;;;;;;11.90;8.13;;;;;;;1.26;100.00;99944.38;5032518;28;20221;-79
2022/03/07 07:07:58;;;;;;;10.17;6.93;;;;;;;1.43;100.00;99949.34;5025872;28;20193;-79
2022/03/07 07:10:29;;;;;;;9.70;6.47;;;;;;;1.32;100.00;99952.09;5109348;27;20193;-79
2022/03/07 07:12:59;;;;;;;12.03;8.17;;;;;;;1.27;100.00;99958.28;5131420;27;20198;-79
2022/03/07 07:15:27;;;;;;;7.27;5.77;;;;;;;1.38;100.00;99945.94;5125440;27;20190;-79
2022/03/07 07:17:55;;;;;;;6.60;4.80;;;;;;;1.35;100.00;99959.91;5136730;27;20195;-79
2022/03/07 07:20:24;;;;;;;7.30;5.10;;;;;;;1.35;100.00;99956.41;5124546;27;20198;-79
2022/03/07 07:22:53;;;;;;;6.67;4.93;;;;;;;1.35;100.00;99965.13;5137673;27;20193;-79
2022/03/07 07:25:23;;;;;;;7.07;4.50;;;;;;;1.33;100.00;99964.25;5126695;27;20237;-79
2022/03/07 07:27:55;;;;;;;10.43;6.40;;;;;;;1.29;100.00;99954.75;5134609;27;20198;-79
2022/03/07 07:30:23;;;;;;;7.37;5.37;;;;;;;1.41;100.00;99965.03;5134192;27;20186;-79
2022/03/07 07:32:51;;;;;;;10.30;6.80;;;;;;;1.60;100.00;99957.78;5123808;27;20194;-80
2022/03/07 07:35:20;;;;;;;9.53;6.20;;;;;;;1.48;100.00;99960.59;5125568;27;20240;-79
2022/03/07 07:37:49;;;;;;;7.87;4.70;;;;;;;1.64;100.00;99958.59;5125998;27;20194;-80
2022/03/07 07:40:22;;;;;;;6.37;4.83;;;;;;;1.76;100.00;99954.97;5128622;27;20271;-76
2022/03/07 07:42:52;;;;;;;4.77;3.80;;;;;;;1.95;100.00;99962.50;5133666;27;20704;-77
2022/03/07 07:45:20;;;;;;;5.37;3.87;;;;;;;1.83;100.00;99967.03;5133529;27;20206;-77
2022/03/07 07:47:49;;;;;;;4.83;3.90;;;;;;;1.77;100.00;99965.38;5130679;27;20202;-77
2022/03/07 07:50:18;;;;;;;6.67;3.30;;;;;;;1.95;100.00;99967.72;5125690;27;20210;-79
2022/03/07 07:52:46;;;;;;;4.00;3.20;;;;;;;1.93;100.00;99964.28;5133806;27;20644;-79
2022/03/07 07:55:16;;;;;;;5.07;3.20;;;;;;;2.02;100.00;99968.44;5127398;27;20202;-79
2022/03/07 07:57:46;;;;;;;3.93;2.93;;;;;;;2.08;100.00;99970.97;5128258;27;20186;-79
2022/03/07 08:00:20;;;;;;;3.60;3.10;;;;;;;2.24;100.00;99961.13;5127636;27;20237;-79
2022/03/07 08:02:50;;;;;;;4.93;3.23;;;;;;;2.36;100.00;99967.91;5054954;28;20192;-79
2022/03/07 08:05:20;;;;;;;4.50;3.23;;;;;;;2.24;100.00;99971.59;5066135;28;20216;-79
2022/03/07 08:07:58;;;;;;;4.53;3.40;;;;;;;1.88;100.00;99976.53;5067713;28;20203;-79
2022/03/07 08:10:37;;;;;;;3.50;3.10;;;;;;;1.87;100.00;99977.41;5063269;28;20199;-79
2022/03/07 08:13:13;;;;;;;3.80;3.00;;;;;;;2.04;100.00;99974.53;5067588;28;20189;-77
2022/03/07 08:15:42;;;;;;;4.90;3.10;;;;;;;2.18;100.00;99971.69;5072649;28;20207;-79
2022/03/07 08:18:11;;;;;;;4.20;3.20;;;;;;;2.11;100.00;99972.66;5066003;28;20200;-80
2022/03/07 08:20:40;;;;;;;3.63;2.93;;;;;;;2.27;100.00;99971.53;5048447;28;20291;-79
2022/03/07 08:23:08;;;;;;;5.07;3.40;;;;;;;2.30;100.00;99971.47;5068093;28;20204;-80
2022/03/07 08:25:36;;;;;;;5.97;3.13;;;;;;;2.30;99.61;99982.78;5064749;28;20216;-80
2022/03/07 08:28:06;;;;;;;3.50;2.87;;;;;;;2.05;100.00;99975.41;5074876;27;20194;-80
2022/03/07 08:30:39;;;;;;;4.57;3.30;;;;;;;1.99;99.34;99979.81;5132580;27;20194;-80
2022/03/07 08:33:11;;;;;;;4.53;3.00;;;;;;;2.03;99.36;99974.53;5124709;27;20233;-79
2022/03/07 08:35:40;;;;;;;4.37;3.10;;;;;;;2.21;100.00;99982.06;5052947;28;20280;-79
2022/03/07 08:38:09;;;;;;;4.30;3.10;;;;;;;2.22;99.64;99975.97;5052903;28;20191;-79
2022/03/07 08:40:43;;;;;;;3.87;3.23;;;;;;;2.17;98.69;99976.06;5047265;28;20280;-79
2022/03/07 08:43:15;;;;;;;6.87;3.47;;;;;;;2.32;98.71;99985.41;5032034;28;20217;-79
2022/03/07 08:45:45;;;;;;;4.97;3.70;;;;;;;2.40;99.89;99973.03;5023493;28;20264;-79
2022/03/07 08:48:23;;;;;;;4.53;3.27;;;;;;;2.34;98.54;99978.38;5028120;28;20209;-79
2022/03/07 08:50:54;;;;;;;4.90;3.33;;;;;;;2.39;98.95;99979.16;5028379;28;20201;-79
2022/03/07 08:53:23;;;;;;;3.77;3.10;;;;;;;2.29;97.32;99988.91;5044211;28;20196;-79
2022/03/07 08:55:54;;;;;;;4.87;3.57;;;;;;;2.19;97.08;99991.69;5026549;28;20209;-79
2022/03/07 08:58:46;;;;;;;3.90;3.13;;;;;;;2.41;95.94;99989.56;5032173;28;20315;-79
2022/03/07 09:01:18;;;;;;;3.50;3.20;;;;;;;2.51;95.27;99989.41;5038280;28;20271;-78
2022/03/07 09:03:54;;;;;;;4.40;3.23;;;;;;;2.56;94.82;99990.19;5063836;28;20697;-78
2022/03/07 09:06:30;;;;;;;3.63;3.33;;;;;;;2.62;93.12;99985.75;5070494;28;20253;-78
2022/03/07 09:09:02;;;;;;;6.50;3.90;;;;;;;2.82;92.91;99994.06;5037114;28;20740;-78
2022/03/07 09:11:53;;;;;;;4.93;3.37;;;;;;;3.04;90.30;99984.03;5072045;28;20235;-78
2022/03/07 09:14:27;;;;;;;3.93;3.30;;;;;;;3.48;89.49;99984.88;5102384;27;20192;-78
2022/03/07 09:17:02;;;;;;;7.40;4.13;;;;;;;3.79;88.62;99982.44;5049886;28;20197;-78
2022/03/07 09:19:32;;;;;;;5.03;4.33;;;;;;;3.87;89.39;99997.06;5051800;28;20291;-78
2022/03/07 09:22:00;;;;;;;4.60;4.13;;;;;;;3.84;85.12;99988.41;5046509;28;20201;-78
2022/03/07 09:24:29;;;;;;;7.67;3.90;;;;;;;3.78;82.91;99986.81;5028336;28;20239;-78
2022/03/07 09:26:57;;;;;;;6.00;4.07;;;;;;;3.90;83.53;99978.66;5044902;28;20263;-78
2022/03/07 09:29:26;;;;;;;5.33;3.63;;;;;;;3.94;84.27;99982.06;5042650;28;20205;-78
2022/03/07 09:32:01;;;;;;;5.03;3.50;;;;;;;3.98;81.95;99986.34;5050314;28;20193;-78
2022/03/07 09:34:31;;;;;;;5.17;3.70;;;;;;;3.98;80.61;99987.19;5066454;27;20194;-78
2022/03/07 09:37:00;;;;;;;5.30;3.93;;;;;;;4.09;80.54;99988.69;5131601;27;20194;-78
2022/03/07 09:39:31;;;;;;;4.97;3.70;;;;;;;4.13;79.91;99985.94;5130430;27;20202;-78
2022/03/07 09:42:00;;;;;;;7.43;4.20;;;;;;;4.27;79.01;99986.50;5037592;28;20189;-78
2022/03/07 09:44:28;;;;;;;4.23;3.73;;;;;;;4.41;77.50;99988.75;5070152;28;20223;-77
2022/03/07 09:47:03;;;;;;;5.40;3.70;;;;;;;4.46;76.62;99989.50;5065505;28;20244;-77
2022/03/07 09:49:34;;;;;;;4.60;3.67;;;;;;;4.84;75.12;99987.63;5069573;28;20219;-77
2022/03/07 09:52:03;;;;;;;4.80;3.97;;;;;;;5.06;74.82;99990.50;5084582;28;20196;-78
2022/03/07 09:54:32;;;;;;;4.37;3.97;;;;;;;5.29;74.16;100001.22;5007448;28;20202;-77
2022/03/07 09:57:05;;;;;;;5.13;4.17;;;;;;;5.28;73.48;99996.88;5006306;28;20198;-78
2022/03/07 09:59:35;;;;;;;6.33;4.00;;;;;;;5.10;72.48;99990.38;4922855;28;20204;-78
2022/03/07 10:02:05;;;;;;;5.93;4.10;;;;;;;4.88;73.35;99992.75;4949508;28;20199;-80
2022/03/07 10:04:42;;;;;;;4.83;3.97;;;;;;;4.67;73.04;100001.19;4947758;28;20204;-78
2022/03/07 10:07:11;;;;;;;4.70;3.60;;;;;;;4.46;73.16;100005.25;4874531;29;20230;-77
2022/03/07 10:09:40;;;;;;;5.17;3.73;;;;;;;4.59;74.43;100003.16;4858906;29;20208;-78
2022/03/07 10:12:09;;;;;;;4.73;4.13;;;;;;;4.57;74.65;100002.34;4867712;29;20197;-78
2022/03/07 10:14:44;;;;;;;5.40;4.47;;;;;;;4.30;75.63;100011.75;4896337;29;20651;-80
2022/03/07 10:17:22;;;;;;;4.40;4.00;;;;;;;4.74;74.01;100001.91;4911278;28;20195;-78
2022/03/07 10:19:53;;;;;;;5.80;3.70;;;;;;;4.55;71.96;100005.00;4969350;28;20198;-80
2022/03/07 10:22:24;;;;;;;4.30;3.57;;;;;;;4.17;72.77;100005.97;4942532;28;20246;-80
2022/03/07 10:25:02;;;;;;;4.27;3.87;;;;;;;4.17;74.17;100000.72;4985998;28;20634;-79
2022/03/07 10:27:33;;;;;;;5.20;3.90;;;;;;;4.51;74.35;100005.09;5023221;28;20212;-80
2022/03/07 10:30:09;;;;;;;6.37;4.33;;;;;;;4.48;75.50;100006.06;5047509;28;20206;-80
2022/03/07 10:32:37;;;;;;;4.53;3.90;;;;;;;4.71;74.80;100010.69;5048070;28;20189;-80
2022/03/07 10:35:22;;;;;;;4.67;3.70;;;;;;;5.14;72.20;100005.16;5052428;28;20276;-80
2022/03/07 10:37:57;;;;;;;4.53;3.87;;;;;;;5.13;69.74;99989.44;4992767;28;20191;-80
2022/03/07 10:40:26;;;;;;;4.53;4.00;;;;;;;5.24;67.97;99990.00;5041100;28;20226;-80
2022/03/07 10:42:55;;;;;;;4.77;3.53;;;;;;;5.32;67.38;99990.63;5094718;28;20270;-80
2022/03/07 10:45:25;;;;;;;5.23;4.00;;;;;;;5.65;68.06;99990.53;5086616;28;20192;-80
2022/03/07 10:47:56;;;;;;;5.77;4.53;;;;;;;5.67;66.20;99989.56;5090064;28;20223;-80
2022/03/07 10:50:27;;;;;;;7.10;4.13;;;;;;;5.89;65.22;99981.88;5089936;28;20226;-80
2022/03/07 10:53:00;;;;;;;5.23;4.13;;;;;;;6.24;62.83;99987.78;5087740;28;20203;-80
2022/03/07 10:55:34;;;;;;;6.07;4.30;;;;;;;6.17;62.02;99981.00;5092400;28;20203;-80
2022/03/07 10:58:09;;;;;;;4.77;3.87;;;;;;;6.30;61.74;99972.69;5095057;28;20200;-80
2022/03/07 11:00:49;;;;;;;6.47;4.50;;;;;;;6.25;60.78;99976.34;5094065;28;20193;-80
2022/03/07 11:03:20;;;;;;;5.87;4.33;;;;;;;6.82;61.21;99978.78;5138903;27;20201;-80
2022/03/07 11:05:54;;;;;;;5.57;4.50;;;;;;;7.16;58.97;99983.69;5150755;27;20205;-80
2022/03/07 11:08:24;;;;;;;5.53;4.57;;;;;;;6.84;58.42;99983.97;5152031;27;20244;-80
2022/03/07 11:10:54;;;;;;;6.97;5.00;;;;;;;6.81;57.82;99974.41;5154599;27;20289;-81
2022/03/07 11:13:26;;;;;;;12.53;7.13;;;;;;;6.88;58.05;99975.06;5148558;27;20365;-80
2022/03/07 11:15:59;;;;;;;11.23;7.13;;;;;;;7.10;58.77;99972.50;5108864;28;20274;-78
2022/03/07 11:18:30;;;;;;;6.53;4.83;;;;;;;7.79;57.09;99967.25;5109214;28;20237;-80
2022/03/07 11:21:04;;;;;;;6.13;4.90;;;;;;;7.86;54.74;99963.44;5111577;28;20187;-80
2022/03/07 11:23:33;;;;;;;6.73;4.70;;;;;;;8.01;53.56;99960.22;5127298;27;20186;-80
2022/03/07 11:26:04;;;;;;;5.23;4.70;;;;;;;7.83;53.07;99953.88;5128363;27;20193;-80
2022/03/07 11:28:33;;;;;;;5.97;5.37;;;;;;;7.83;52.85;99956.53;5130711;27;20219;-78
2022/03/07 11:31:01;;;;;;;7.30;6.37;;;;;;;7.63;53.67;99956.47;5130847;27;20198;-78
2022/03/07 11:33:37;;;;;;;9.93;6.43;;;;;;;7.91;53.70;99950.91;5133665;27;20197;-79
2022/03/07 11:36:19;;;;;;;6.87;5.40;;;;;;;7.93;52.07;99949.09;5172769;27;20188;-81
2022/03/07 11:38:54;;;;;;;6.40;5.47;;;;;;;7.82;52.56;99936.34;5173609;27;20185;-79
2022/03/07 11:41:28;;;;;;;5.50;5.00;;;;;;;8.09;50.59;99942.25;5176156;27;20185;-78
2022/03/07 11:44:00;;;;;;;6.53;5.10;;;;;;;7.93;50.30;99931.50;5170066;27;20304;-80
2022/03/07 11:46:32;;;;;;;5.57;4.83;;;;;;;8.04;50.84;99934.56;5154505;27;20190;-80
2022/03/07 11:49:01;;;;;;;5.97;5.47;;;;;;;8.30;49.51;99932.63;5152548;27;20209;-81
2022/03/07 11:51:32;;;;;;;6.53;5.47;;;;;;;7.93;50.25;99930.63;5145581;27;20201;-78